LNI362 WARR-WALL
Flight info
| Callsign | LNI362 |
|---|---|
| Flight time | N/A |
| Altitude | 31000 |
| Route | RAMPY T13 IKAPI T11 KAYAN |
| Aircraft | B739/M-SDE2E3FGHIRWXY/LB1 |
Departure
| Time | 2026-04-30 11:59 |
|---|---|
| Airport | Juanda International Airport (WARR) |
Arrival
| Time | N/A |
|---|---|
| Airport | Sultan Aji Muhammad Sulaiman Sepinggan International Airport (WALL) |
| Time | Latitude | Longitude | Altitude | Speed | Heading |
|---|---|---|---|---|---|
| 2026-04-30 11:30 | -7.37616 | 112.79592 | 8 ft | 0 kts | 9° |
| 2026-04-30 11:47 | -7.37622 | 112.79591 | 9 ft | 3 kts | 9° |
| 2026-04-30 11:47 | -7.37649 | 112.79586 | 11 ft | 3 kts | 9° |
| 2026-04-30 11:48 | -7.37671 | 112.79583 | 10 ft | 3 kts | 0° |
| 2026-04-30 11:48 | -7.37694 | 112.79589 | 10 ft | 3 kts | 311° |
| 2026-04-30 11:48 | -7.37703 | 112.79608 | 12 ft | 1 kts | 279° |
| 2026-04-30 11:48 | -7.37704 | 112.79609 | 12 ft | 0 kts | 279° |
| 2026-04-30 11:51 | -7.37703 | 112.79603 | 12 ft | 2 kts | 279° |
| 2026-04-30 11:51 | -7.37698 | 112.79574 | 10 ft | 6 kts | 279° |
| 2026-04-30 11:51 | -7.37688 | 112.79515 | 8 ft | 11 kts | 279° |
| 2026-04-30 11:52 | -7.37674 | 112.79429 | 8 ft | 14 kts | 279° |
| 2026-04-30 11:52 | -7.37657 | 112.79322 | 8 ft | 17 kts | 279° |
| 2026-04-30 11:52 | -7.37636 | 112.79195 | 8 ft | 20 kts | 279° |
| 2026-04-30 11:52 | -7.37622 | 112.79106 | 8 ft | 8 kts | 279° |
| 2026-04-30 11:53 | -7.37620 | 112.79096 | 8 ft | 9 kts | 279° |
| 2026-04-30 11:53 | -7.37620 | 112.79094 | 8 ft | 0 kts | 279° |
| 2026-04-30 11:53 | -7.37619 | 112.79088 | 9 ft | 5 kts | 279° |
| 2026-04-30 11:53 | -7.37611 | 112.79037 | 8 ft | 10 kts | 279° |
| 2026-04-30 11:54 | -7.37600 | 112.78970 | 8 ft | 7 kts | 279° |
| 2026-04-30 11:54 | -7.37622 | 112.78916 | 8 ft | 11 kts | 203° |
| 2026-04-30 11:54 | -7.37714 | 112.78898 | 8 ft | 16 kts | 189° |
| 2026-04-30 11:54 | -7.37824 | 112.78850 | 8 ft | 19 kts | 249° |
| 2026-04-30 11:55 | -7.37811 | 112.78707 | 8 ft | 23 kts | 279° |
| 2026-04-30 11:55 | -7.37784 | 112.78537 | 8 ft | 26 kts | 279° |
| 2026-04-30 11:55 | -7.37753 | 112.78344 | 8 ft | 29 kts | 279° |
| 2026-04-30 11:55 | -7.37723 | 112.78158 | 8 ft | 28 kts | 279° |
| 2026-04-30 11:56 | -7.37689 | 112.77956 | 10 ft | 31 kts | 279° |
| 2026-04-30 11:56 | -7.37654 | 112.77733 | 8 ft | 33 kts | 279° |
| 2026-04-30 11:56 | -7.37620 | 112.77528 | 8 ft | 17 kts | 279° |
| 2026-04-30 11:56 | -7.37623 | 112.77405 | 9 ft | 18 kts | 237° |
| 2026-04-30 11:57 | -7.37723 | 112.77374 | 7 ft | 17 kts | 187° |
| 2026-04-30 11:57 | -7.37773 | 112.77398 | 9 ft | 8 kts | 111° |
| 2026-04-30 11:57 | -7.37784 | 112.77455 | 8 ft | 0 kts | 99° |
| 2026-04-30 11:58 | -7.37793 | 112.77509 | 8 ft | 29 kts | 99° |
| 2026-04-30 11:58 | -7.37866 | 112.77960 | 9 ft | 100 kts | 99° |
| 2026-04-30 11:58 | -7.38010 | 112.78853 | 9 ft | 156 kts | 99° |
| 2026-04-30 11:58 | -7.38213 | 112.80040 | 260 ft | 179 kts | 99° |
| 2026-04-30 11:59 | -7.38425 | 112.81293 | 843 ft | 183 kts | 99° |
| 2026-04-30 11:59 | -7.38624 | 112.82556 | 1531 ft | 181 kts | 99° |
| 2026-04-30 11:59 | -7.38829 | 112.83804 | 2062 ft | 190 kts | 100° |
| 2026-04-30 11:59 | -7.39052 | 112.85212 | 2275 ft | 215 kts | 99° |
| 2026-04-30 12:00 | -7.39293 | 112.86784 | 2470 ft | 239 kts | 99° |
| 2026-04-30 12:00 | -7.39564 | 112.88521 | 2771 ft | 259 kts | 99° |
| 2026-04-30 12:00 | -7.39853 | 112.90334 | 3485 ft | 263 kts | 99° |
| 2026-04-30 12:00 | -7.39822 | 112.92174 | 4187 ft | 267 kts | 75° |
| 2026-04-30 12:01 | -7.39020 | 112.93867 | 4928 ft | 271 kts | 56° |
| 2026-04-30 12:01 | -7.37896 | 112.95404 | 5637 ft | 274 kts | 53° |
| 2026-04-30 12:01 | -7.36726 | 112.96940 | 6351 ft | 277 kts | 53° |
| 2026-04-30 12:01 | -7.35547 | 112.98487 | 7028 ft | 280 kts | 53° |
| 2026-04-30 12:02 | -7.34362 | 113.00054 | 7722 ft | 282 kts | 53° |
| 2026-04-30 12:02 | -7.33173 | 113.01635 | 8388 ft | 285 kts | 54° |
| 2026-04-30 12:02 | -7.31975 | 113.03235 | 9063 ft | 287 kts | 54° |
| 2026-04-30 12:02 | -7.30771 | 113.04851 | 9743 ft | 290 kts | 54° |
| 2026-04-30 12:03 | -7.29555 | 113.06484 | 10319 ft | 296 kts | 54° |
| 2026-04-30 12:03 | -7.26851 | 113.09973 | 10598 ft | 337 kts | 43° |
| 2026-04-30 12:03 | -7.24821 | 113.11253 | 10796 ft | 354 kts | 20° |
| 2026-04-30 12:04 | -7.22422 | 113.11914 | 11270 ft | 360 kts | 15° |
| 2026-04-30 12:04 | -7.19972 | 113.12480 | 11822 ft | 362 kts | 14° |
| 2026-04-30 12:04 | -7.17506 | 113.13028 | 12376 ft | 364 kts | 14° |
| 2026-04-30 12:04 | -7.15022 | 113.13581 | 12907 ft | 367 kts | 14° |
| 2026-04-30 12:05 | -7.12520 | 113.14146 | 13455 ft | 369 kts | 14° |
| 2026-04-30 12:05 | -7.10004 | 113.14722 | 13935 ft | 372 kts | 15° |
| 2026-04-30 12:05 | -7.07472 | 113.15308 | 14396 ft | 375 kts | 15° |
| 2026-04-30 12:05 | -7.04924 | 113.15901 | 14846 ft | 377 kts | 15° |
| 2026-04-30 12:06 | -7.02359 | 113.16501 | 15298 ft | 380 kts | 15° |
| 2026-04-30 12:06 | -6.99774 | 113.17106 | 15748 ft | 382 kts | 15° |
| 2026-04-30 12:06 | -6.97175 | 113.17716 | 16186 ft | 385 kts | 15° |
| 2026-04-30 12:06 | -6.94558 | 113.18330 | 16615 ft | 388 kts | 15° |
| 2026-04-30 12:07 | -6.91926 | 113.18947 | 17034 ft | 390 kts | 15° |
| 2026-04-30 12:07 | -6.89271 | 113.19569 | 17449 ft | 393 kts | 15° |
| 2026-04-30 12:07 | -6.86601 | 113.20195 | 17867 ft | 395 kts | 15° |
| 2026-04-30 12:07 | -6.83914 | 113.20825 | 18256 ft | 398 kts | 15° |
| 2026-04-30 12:08 | -6.81245 | 113.21451 | 18593 ft | 400 kts | 15° |
| 2026-04-30 12:08 | -6.78493 | 113.22095 | 18957 ft | 402 kts | 15° |
| 2026-04-30 12:08 | -6.75803 | 113.22726 | 19309 ft | 403 kts | 15° |
| 2026-04-30 12:08 | -6.73064 | 113.23367 | 19661 ft | 405 kts | 15° |
| 2026-04-30 12:09 | -6.70308 | 113.24013 | 19976 ft | 408 kts | 15° |
| 2026-04-30 12:09 | -6.67536 | 113.24662 | 20282 ft | 410 kts | 15° |
| 2026-04-30 12:09 | -6.64751 | 113.25314 | 20617 ft | 412 kts | 15° |
| 2026-04-30 12:09 | -6.61954 | 113.25969 | 20895 ft | 415 kts | 15° |
| 2026-04-30 12:10 | -6.59122 | 113.26633 | 20893 ft | 420 kts | 15° |
| 2026-04-30 12:10 | -6.56285 | 113.27297 | 20896 ft | 417 kts | 15° |
| 2026-04-30 12:10 | -6.53473 | 113.27954 | 20896 ft | 414 kts | 15° |
| 2026-04-30 12:10 | -6.50668 | 113.28611 | 20909 ft | 415 kts | 15° |
| 2026-04-30 12:11 | -6.47840 | 113.29272 | 21058 ft | 420 kts | 15° |
| 2026-04-30 12:11 | -6.44987 | 113.29938 | 21393 ft | 421 kts | 15° |
| 2026-04-30 12:11 | -6.43101 | 113.30377 | 21619 ft | 421 kts | 15° |
| 2026-04-30 12:11 | -6.40243 | 113.31044 | 21976 ft | 421 kts | 15° |
| 2026-04-30 12:12 | -6.37383 | 113.31711 | 22295 ft | 423 kts | 15° |
| 2026-04-30 12:12 | -6.34514 | 113.32380 | 22579 ft | 425 kts | 15° |
| 2026-04-30 12:12 | -6.31632 | 113.33053 | 22856 ft | 427 kts | 15° |
| 2026-04-30 12:12 | -6.28733 | 113.33729 | 23120 ft | 429 kts | 15° |
| 2026-04-30 12:13 | -6.25817 | 113.34411 | 23374 ft | 431 kts | 15° |
| 2026-04-30 12:13 | -6.22985 | 113.35376 | 23586 ft | 430 kts | 26° |
| 2026-04-30 12:13 | -6.20280 | 113.36655 | 23814 ft | 431 kts | 28° |
| 2026-04-30 12:13 | -6.17600 | 113.38014 | 24041 ft | 432 kts | 28° |
| 2026-04-30 12:14 | -6.14923 | 113.39390 | 24255 ft | 433 kts | 28° |
| 2026-04-30 12:14 | -6.12232 | 113.40764 | 24471 ft | 435 kts | 28° |
| 2026-04-30 12:14 | -6.09526 | 113.42126 | 24681 ft | 436 kts | 28° |
| 2026-04-30 12:14 | -6.06803 | 113.43479 | 24889 ft | 437 kts | 28° |
| 2026-04-30 12:15 | -6.04065 | 113.44827 | 25091 ft | 439 kts | 27° |
| 2026-04-30 12:15 | -6.01316 | 113.46174 | 25288 ft | 440 kts | 27° |
| 2026-04-30 12:15 | -5.98555 | 113.47522 | 25490 ft | 442 kts | 27° |
| 2026-04-30 12:15 | -5.95790 | 113.48871 | 25684 ft | 443 kts | 27° |
| 2026-04-30 12:16 | -5.93012 | 113.50226 | 25887 ft | 444 kts | 27° |
| 2026-04-30 12:16 | -5.90265 | 113.51566 | 26072 ft | 445 kts | 27° |
| 2026-04-30 12:16 | -5.87475 | 113.52927 | 26258 ft | 447 kts | 27° |
| 2026-04-30 12:16 | -5.84674 | 113.54294 | 26437 ft | 448 kts | 27° |
| 2026-04-30 12:17 | -5.79047 | 113.57040 | 26790 ft | 451 kts | 27° |
| 2026-04-30 12:17 | -5.76223 | 113.58418 | 26964 ft | 452 kts | 27° |